Time;durP1;ratioP1;P1;durP2;ratioP2;P2;SDS_P1;SDS_P2;PMS_P1;PMS_P2;Temp;Humidity;BMP_temperature;BMP_pressure;BME280_temperature;BME280_humidity;BME280_pressure;Samples;Min_cycle;Max_cycle;Signal;HPM_P1;HPM_P2
2021/11/06 00:02:08;;;;;;;11.52;6.25;;;5.60;85.50;;;;;;5056021;28;20108;-77
2021/11/06 00:04:33;;;;;;;8.82;5.43;;;5.50;85.40;;;;;;5021542;28;20119;-75
2021/11/06 00:06:59;;;;;;;7.32;5.25;;;5.50;85.30;;;;;;5037679;28;20478;-78
2021/11/06 00:09:25;;;;;;;7.63;4.88;;;5.50;85.30;;;;;;5037863;28;20021;-75
2021/11/06 00:11:50;;;;;;;7.38;5.03;;;5.50;85.30;;;;;;5038190;28;20075;-75
2021/11/06 00:14:16;;;;;;;7.15;4.95;;;5.40;85.20;;;;;;5037893;28;20099;-76
2021/11/06 00:16:41;;;;;;;8.57;5.00;;;5.40;85.20;;;;;;5037758;28;20017;-76
2021/11/06 00:19:07;;;;;;;9.25;5.38;;;5.30;85.20;;;;;;5037673;28;20045;-74
2021/11/06 00:21:32;;;;;;;10.98;6.70;;;5.20;84.80;;;;;;5037669;28;20021;-75
2021/11/06 00:23:58;;;;;;;11.48;6.22;;;5.20;84.80;;;;;;5037785;28;20083;-76
2021/11/06 00:26:24;;;;;;;11.38;7.25;;;5.10;84.90;;;;;;5037812;28;20021;-75
2021/11/06 00:28:50;;;;;;;11.38;6.97;;;5.00;84.80;;;;;;5055446;28;20048;-75
2021/11/06 00:31:16;;;;;;;9.82;6.45;;;5.00;84.80;;;;;;5055434;28;20013;-79
2021/11/06 00:33:42;;;;;;;8.38;5.18;;;4.90;84.70;;;;;;5020613;28;20033;-76
2021/11/06 00:36:07;;;;;;;8.98;4.85;;;4.80;84.60;;;;;;5036613;28;20032;-74
2021/11/06 00:38:33;;;;;;;7.63;5.43;;;4.80;84.70;;;;;;5037577;28;20021;-77
2021/11/06 00:40:59;;;;;;;8.50;5.88;;;4.80;84.70;;;;;;5037582;28;20044;-75
2021/11/06 00:43:24;;;;;;;12.43;6.72;;;4.80;84.90;;;;;;5021065;28;20029;-74
2021/11/06 00:45:50;;;;;;;10.63;6.82;;;4.80;84.80;;;;;;5037463;28;20028;-75
2021/11/06 00:48:16;;;;;;;10.52;6.72;;;4.70;84.60;;;;;;5037379;28;20025;-75
2021/11/06 00:50:41;;;;;;;9.27;6.40;;;4.60;84.50;;;;;;5037200;28;20473;-74
2021/11/06 00:53:07;;;;;;;9.93;6.60;;;4.50;84.60;;;;;;5037070;28;20079;-74
2021/11/06 00:55:33;;;;;;;10.13;6.55;;;4.60;84.80;;;;;;5037094;28;20033;-75
2021/11/06 00:57:58;;;;;;;9.02;6.13;;;4.50;85.00;;;;;;5037178;28;20025;-75
2021/11/06 01:00:24;;;;;;;10.90;6.03;;;4.50;85.00;;;;;;5036982;28;20495;-74
2021/11/06 01:02:50;;;;;;;10.35;6.35;;;4.50;84.90;;;;;;5020327;28;20036;-76
2021/11/06 01:05:17;;;;;;;10.50;6.57;;;4.50;84.90;;;;;;5020584;28;20040;-75
2021/11/06 01:07:44;;;;;;;8.57;5.53;;;4.50;84.90;;;;;;5037005;28;20024;-75
2021/11/06 01:10:14;;;;;;;7.93;6.10;;;4.50;84.90;;;;;;5036866;28;20100;-77
2021/11/06 01:12:40;;;;;;;10.45;5.68;;;4.50;85.10;;;;;;5036734;28;20431;-78
2021/11/06 01:15:08;;;;;;;8.57;5.75;;;4.40;85.30;;;;;;5036738;28;20044;-76
2021/11/06 01:17:34;;;;;;;8.77;6.25;;;4.40;85.50;;;;;;5036450;28;20035;-76
2021/11/06 01:20:00;;;;;;;7.90;5.70;;;4.50;85.70;;;;;;5036816;28;20033;-77
2021/11/06 01:22:25;;;;;;;8.18;5.95;;;4.50;85.80;;;;;;5036519;28;20025;-77
2021/11/06 01:24:51;;;;;;;9.63;6.63;;;4.50;85.80;;;;;;5036669;28;20021;-77
2021/11/06 01:27:17;;;;;;;10.50;6.13;;;4.40;85.40;;;;;;5036552;28;20021;-77
2021/11/06 01:29:42;;;;;;;9.68;6.78;;;4.40;85.50;;;;;;5036485;28;20117;-76
2021/11/06 01:32:09;;;;;;;11.07;6.43;;;4.40;85.60;;;;;;5019923;28;20037;-77
2021/11/06 01:34:36;;;;;;;9.15;6.30;;;4.40;85.60;;;;;;5053954;28;20494;-76
2021/11/06 01:37:02;;;;;;;9.85;6.95;;;4.40;85.80;;;;;;5036587;28;20363;-76
2021/11/06 01:39:28;;;;;;;13.32;7.93;;;4.30;86.40;;;;;;5036168;28;20029;-76
2021/11/06 01:41:54;;;;;;;11.13;7.45;;;4.20;86.70;;;;;;5036384;28;20534;-77
2021/11/06 01:44:19;;;;;;;10.95;7.25;;;4.20;87.00;;;;;;5036206;28;20036;-76
2021/11/06 01:46:45;;;;;;;15.25;8.13;;;4.20;87.00;;;;;;5035745;28;20028;-77
2021/11/06 01:49:11;;;;;;;10.55;7.43;;;4.00;87.30;;;;;;5036214;28;20033;-78
2021/11/06 01:51:36;;;;;;;10.80;7.65;;;4.10;87.60;;;;;;5036053;28;20032;-80
2021/11/06 01:54:03;;;;;;;12.20;8.02;;;4.10;87.50;;;;;;5035902;28;20029;-79
2021/11/06 01:56:29;;;;;;;14.82;9.50;;;4.10;87.40;;;;;;5035991;28;20057;-79
2021/11/06 01:58:55;;;;;;;13.95;9.73;;;4.10;87.40;;;;;;5036106;28;20102;-79
2021/11/06 02:01:21;;;;;;;13.20;8.93;;;4.10;87.50;;;;;;5036034;28;20025;-79
2021/11/06 02:03:47;;;;;;;13.52;8.18;;;4.10;87.50;;;;;;5035767;28;20083;-79
2021/11/06 02:06:13;;;;;;;12.20;8.35;;;4.10;87.40;;;;;;5035925;28;20025;-78
2021/11/06 02:08:39;;;;;;;12.27;7.68;;;4.00;87.20;;;;;;5035763;28;20116;-78
2021/11/06 02:11:06;;;;;;;11.10;7.75;;;4.00;87.00;;;;;;5035778;28;20025;-77
2021/11/06 02:13:32;;;;;;;12.70;7.78;;;4.00;86.90;;;;;;5035715;28;20048;-77
2021/11/06 02:15:58;;;;;;;10.52;7.25;;;4.00;86.70;;;;;;5035572;28;20025;-77
2021/11/06 02:18:23;;;;;;;14.38;8.40;;;4.00;86.50;;;;;;5026609;28;20067;-75
2021/11/06 02:20:59;;;;;;;11.70;7.65;;;4.10;86.40;;;;;;5015943;28;20112;-76
2021/11/06 02:23:25;;;;;;;11.73;7.40;;;4.10;86.30;;;;;;5015830;28;20029;-77
2021/11/06 02:25:51;;;;;;;10.48;7.13;;;4.10;85.90;;;;;;5015806;28;20033;-77
2021/11/06 02:28:17;;;;;;;9.32;7.00;;;4.00;85.70;;;;;;5015657;28;20112;-74
2021/11/06 02:30:42;;;;;;;10.70;6.60;;;4.00;85.60;;;;;;5015603;28;20048;-76
2021/11/06 02:33:08;;;;;;;8.35;5.55;;;4.00;85.20;;;;;;5015448;28;20030;-76
2021/11/06 02:35:34;;;;;;;13.23;6.47;;;4.00;84.50;;;;;;5015276;28;20029;-76
2021/11/06 02:37:59;;;;;;;10.00;6.45;;;4.00;84.40;;;;;;5015728;28;20033;-76
2021/11/06 02:40:25;;;;;;;8.80;6.35;;;3.90;84.30;;;;;;5015376;28;20429;-75
2021/11/06 02:42:51;;;;;;;8.93;5.75;;;3.90;84.40;;;;;;5015490;28;20048;-75
2021/11/06 02:45:17;;;;;;;8.07;5.97;;;3.90;84.50;;;;;;5015494;28;20551;-76
2021/11/06 02:47:44;;;;;;;7.55;5.78;;;3.90;84.50;;;;;;4998964;28;20079;-77
2021/11/06 02:50:09;;;;;;;9.68;5.75;;;3.90;84.40;;;;;;5015521;28;20025;-76
2021/11/06 02:52:35;;;;;;;8.00;5.85;;;3.90;84.10;;;;;;5015511;28;20025;-76
2021/11/06 02:55:03;;;;;;;9.30;6.30;;;3.90;84.00;;;;;;5015420;28;20497;-75
2021/11/06 02:57:29;;;;;;;9.65;6.82;;;3.90;83.90;;;;;;5014064;28;20406;-76
2021/11/06 02:59:55;;;;;;;10.02;6.93;;;3.90;84.00;;;;;;5015163;28;20065;-76
2021/11/06 03:02:21;;;;;;;8.05;6.10;;;3.80;83.80;;;;;;5015349;28;20068;-77
2021/11/06 03:04:46;;;;;;;7.30;5.40;;;3.80;83.60;;;;;;5015344;28;20549;-75
2021/11/06 03:07:12;;;;;;;8.43;5.93;;;3.80;84.10;;;;;;5015158;28;20381;-76
2021/11/06 03:09:39;;;;;;;9.13;6.13;;;3.80;83.00;;;;;;5015385;28;20037;-78
2021/11/06 03:12:07;;;;;;;7.65;5.80;;;3.70;83.10;;;;;;5015390;28;20022;-76
2021/11/06 03:14:35;;;;;;;9.40;6.28;;;3.70;83.00;;;;;;5014714;28;20510;-77
2021/11/06 03:17:00;;;;;;;12.52;7.50;;;3.70;82.80;;;;;;5032891;28;20034;-75
2021/11/06 03:19:26;;;;;;;11.40;7.72;;;3.70;82.90;;;;;;5032111;28;20561;-76
2021/11/06 03:21:54;;;;;;;10.80;7.22;;;3.60;83.10;;;;;;5018641;28;20029;-77
2021/11/06 03:24:19;;;;;;;15.13;9.13;;;3.60;83.30;;;;;;5035123;28;20029;-75
2021/11/06 03:26:45;;;;;;;15.30;9.90;;;3.50;83.90;;;;;;5034738;28;20017;-76
2021/11/06 03:29:11;;;;;;;16.20;10.90;;;3.40;84.40;;;;;;5035009;28;20168;-76
2021/11/06 03:31:38;;;;;;;17.48;10.80;;;3.40;85.20;;;;;;5052496;28;20021;-76
2021/11/06 03:34:04;;;;;;;19.80;11.48;;;3.20;85.90;;;;;;5052679;28;20063;-77
2021/11/06 03:36:30;;;;;;;17.30;11.50;;;3.10;87.00;;;;;;5018025;28;20473;-76
2021/11/06 03:38:57;;;;;;;16.98;10.52;;;3.10;87.20;;;;;;5034497;28;20119;-77
2021/11/06 03:41:22;;;;;;;21.40;12.05;;;3.00;87.30;;;;;;5034821;28;20021;-77
2021/11/06 03:43:48;;;;;;;20.70;12.68;;;3.00;87.60;;;;;;5034805;28;20033;-76
2021/11/06 03:46:14;;;;;;;20.95;11.90;;;3.00;87.70;;;;;;5018487;28;20033;-78
2021/11/06 03:48:39;;;;;;;16.20;10.48;;;3.00;87.70;;;;;;5034742;28;20069;-78
2021/11/06 03:51:05;;;;;;;14.07;9.27;;;3.00;87.70;;;;;;5034820;28;20032;-77
2021/11/06 03:53:31;;;;;;;13.77;9.60;;;3.00;87.60;;;;;;5034642;28;20021;-78
2021/11/06 03:55:57;;;;;;;16.73;10.32;;;3.00;87.50;;;;;;5034826;28;20397;-77
2021/11/06 03:58:23;;;;;;;14.02;8.88;;;3.10;87.10;;;;;;5034662;28;20017;-76
2021/11/06 04:00:49;;;;;;;15.43;8.75;;;3.00;84.90;;;;;;5034828;28;20063;-78
2021/11/06 04:03:14;;;;;;;13.50;8.70;;;2.90;84.50;;;;;;5034216;28;20021;-77
2021/11/06 04:05:40;;;;;;;12.77;7.53;;;2.70;84.50;;;;;;5034420;28;20032;-78
2021/11/06 04:08:06;;;;;;;15.88;8.73;;;2.60;85.00;;;;;;5034402;28;20035;-77
2021/11/06 04:10:31;;;;;;;12.88;7.47;;;2.50;85.80;;;;;;5037644;28;20049;-79
2021/11/06 04:12:58;;;;;;;12.13;7.53;;;2.40;86.20;;;;;;5038092;28;20017;-79
2021/11/06 04:15:24;;;;;;;10.50;6.70;;;2.50;86.90;;;;;;5037768;28;20064;-75
2021/11/06 04:17:50;;;;;;;11.20;7.20;;;2.60;87.00;;;;;;5037843;28;20076;-76
2021/11/06 04:20:15;;;;;;;11.57;7.03;;;2.60;86.90;;;;;;5037929;28;20071;-76
2021/11/06 04:22:42;;;;;;;16.30;8.20;;;2.70;86.70;;;;;;5037864;28;20024;-75
2021/11/06 04:25:08;;;;;;;14.10;7.68;;;2.80;86.10;;;;;;5037948;28;20025;-75
2021/11/06 04:27:34;;;;;;;11.43;6.57;;;2.80;85.40;;;;;;5037793;28;20032;-75
2021/11/06 04:30:01;;;;;;;10.18;7.15;;;2.80;84.90;;;;;;5037842;28;20389;-76
2021/11/06 04:32:29;;;;;;;10.50;6.97;;;2.70;84.60;;;;;;5037500;28;20025;-78
2021/11/06 04:34:56;;;;;;;11.00;6.93;;;2.80;84.40;;;;;;5037692;28;20037;-77
2021/11/06 04:37:22;;;;;;;10.98;6.80;;;2.80;84.30;;;;;;5037661;28;20107;-76
2021/11/06 04:39:47;;;;;;;10.85;7.22;;;2.80;84.20;;;;;;5037601;28;20136;-75
2021/11/06 04:42:13;;;;;;;12.48;7.00;;;2.80;83.90;;;;;;5037481;28;20017;-77
2021/11/06 04:44:39;;;;;;;11.07;7.05;;;2.80;83.70;;;;;;5020845;28;20127;-77
2021/11/06 04:47:04;;;;;;;11.40;7.25;;;2.70;83.60;;;;;;5037436;28;20401;-77
2021/11/06 04:49:30;;;;;;;9.48;6.30;;;2.70;83.70;;;;;;5037206;28;20128;-76
2021/11/06 04:51:55;;;;;;;10.18;6.28;;;2.60;83.60;;;;;;5037346;28;20057;-79
2021/11/06 04:54:21;;;;;;;11.80;6.10;;;2.60;83.80;;;;;;5037251;28;20040;-75
2021/11/06 04:56:49;;;;;;;11.63;6.40;;;2.60;84.60;;;;;;5020775;28;20030;-74
2021/11/06 04:59:15;;;;;;;9.15;6.03;;;2.60;83.60;;;;;;5021266;28;20124;-75
2021/11/06 05:01:41;;;;;;;11.55;6.75;;;2.60;83.40;;;;;;5037710;28;20064;-75
2021/11/06 05:04:06;;;;;;;9.82;5.82;;;2.60;83.20;;;;;;5037010;28;20032;-74
2021/11/06 05:06:32;;;;;;;11.77;6.95;;;2.60;83.00;;;;;;5036419;28;20401;-78
2021/11/06 05:08:58;;;;;;;9.57;6.25;;;2.60;82.90;;;;;;5037255;28;20060;-75
2021/11/06 05:11:24;;;;;;;10.38;6.25;;;2.60;82.80;;;;;;5036880;28;20056;-75
2021/11/06 05:13:49;;;;;;;12.43;7.72;;;2.70;82.90;;;;;;5036713;28;20028;-79
2021/11/06 05:16:15;;;;;;;11.73;7.50;;;2.60;82.40;;;;;;5036907;28;20033;-78
2021/11/06 05:18:41;;;;;;;12.45;8.07;;;2.50;82.50;;;;;;5036514;28;20041;-78
2021/11/06 05:21:07;;;;;;;14.43;7.97;;;2.50;82.80;;;;;;5036002;28;20143;-77
2021/11/06 05:23:33;;;;;;;10.75;7.00;;;2.50;82.80;;;;;;5036767;28;20060;-76
2021/11/06 05:25:58;;;;;;;13.95;7.53;;;2.50;82.70;;;;;;5036843;28;20020;-78
2021/11/06 05:28:24;;;;;;;12.10;7.45;;;2.50;82.80;;;;;;5036604;28;20424;-78
2021/11/06 05:30:51;;;;;;;13.38;6.70;;;2.40;82.70;;;;;;5036609;28;20025;-76
2021/11/06 05:33:17;;;;;;;12.43;7.75;;;2.40;82.50;;;;;;5036699;28;20025;-77
2021/11/06 05:35:43;;;;;;;13.93;7.05;;;2.30;82.70;;;;;;5036388;28;20120;-77
2021/11/06 05:38:08;;;;;;;14.65;8.13;;;2.30;82.90;;;;;;5036462;28;20115;-77
2021/11/06 05:40:36;;;;;;;11.15;7.43;;;2.30;83.00;;;;;;5036242;28;20055;-79
2021/11/06 05:43:03;;;;;;;14.50;9.65;;;2.30;83.00;;;;;;5035335;28;20033;-77
2021/11/06 05:45:28;;;;;;;12.65;8.18;;;2.30;83.00;;;;;;5036306;28;20596;-76
2021/11/06 05:47:54;;;;;;;15.38;9.25;;;2.40;82.90;;;;;;5036367;28;20029;-78
2021/11/06 05:50:20;;;;;;;17.20;8.60;;;2.40;82.80;;;;;;5054186;28;20090;-79
2021/11/06 05:52:46;;;;;;;13.75;8.20;;;2.30;83.30;;;;;;5036016;28;20072;-75
2021/11/06 05:55:13;;;;;;;15.45;8.75;;;2.30;82.30;;;;;;5036106;28;20090;-76
2021/11/06 05:57:40;;;;;;;13.02;7.72;;;2.40;82.20;;;;;;5035848;28;20021;-76
2021/11/06 06:00:10;;;;;;;14.32;8.13;;;2.20;81.70;;;;;;5053908;28;20029;-77
2021/11/06 06:02:36;;;;;;;11.88;7.68;;;2.10;81.80;;;;;;5035319;28;20472;-77
2021/11/06 06:05:02;;;;;;;13.48;8.15;;;2.00;82.10;;;;;;5035826;28;20124;-77
2021/11/06 06:07:28;;;;;;;15.20;9.02;;;2.00;82.30;;;;;;5053604;28;20029;-76
2021/11/06 06:09:56;;;;;;;15.88;9.05;;;2.10;82.60;;;;;;5035698;28;20028;-78
2021/11/06 06:12:21;;;;;;;13.25;8.90;;;2.10;82.70;;;;;;5035721;28;20235;-76
2021/11/06 06:14:47;;;;;;;15.65;9.10;;;2.10;82.60;;;;;;5035561;28;20086;-76
2021/11/06 06:17:13;;;;;;;14.80;8.77;;;2.10;82.50;;;;;;5035766;28;20071;-79
2021/11/06 06:19:39;;;;;;;12.30;8.05;;;2.00;82.30;;;;;;5035536;28;20049;-78
2021/11/06 06:22:05;;;;;;;14.25;7.95;;;2.00;82.60;;;;;;5035841;28;20108;-78
2021/11/06 06:24:30;;;;;;;16.33;9.40;;;2.00;82.70;;;;;;5035209;28;20052;-79
2021/11/06 06:26:56;;;;;;;16.63;9.63;;;2.00;82.70;;;;;;5035784;28;20441;-78
2021/11/06 06:29:21;;;;;;;16.67;9.70;;;2.00;82.60;;;;;;5035513;28;20366;-78
2021/11/06 06:31:47;;;;;;;14.32;8.73;;;2.00;82.50;;;;;;5035325;28;20056;-77
2021/11/06 06:34:15;;;;;;;14.35;8.63;;;2.00;82.40;;;;;;5035222;28;20044;-77
2021/11/06 06:36:40;;;;;;;15.57;8.30;;;2.10;82.20;;;;;;5035419;28;20024;-79
2021/11/06 06:39:06;;;;;;;18.45;10.57;;;2.10;82.00;;;;;;5035388;28;20021;-78
2021/11/06 06:41:32;;;;;;;26.05;13.02;;;2.00;81.70;;;;;;5035189;28;20031;-77
2021/11/06 06:43:58;;;;;;;24.67;13.30;;;2.00;82.00;;;;;;5035177;28;20137;-78
2021/11/06 06:46:24;;;;;;;25.08;13.52;;;2.00;82.00;;;;;;5035246;28;20112;-78
2021/11/06 06:48:50;;;;;;;25.38;13.90;;;1.90;82.10;;;;;;5035141;28;20025;-79
2021/11/06 06:51:17;;;;;;;25.60;13.40;;;1.90;82.50;;;;;;5035165;28;20021;-78
2021/11/06 06:53:43;;;;;;;26.15;13.05;;;1.90;82.50;;;;;;5034917;28;20033;-77
2021/11/06 06:56:09;;;;;;;29.48;15.25;;;2.00;82.90;;;;;;5034858;28;20036;-76
2021/11/06 06:58:35;;;;;;;34.22;17.90;;;2.00;82.80;;;;;;5041964;28;20021;-78
2021/11/06 07:01:01;;;;;;;45.47;16.50;;;2.10;82.90;;;;;;5024961;28;20389;-75
2021/11/06 07:03:27;;;;;;;25.33;14.13;;;2.10;82.70;;;;;;5026067;28;20079;-76
2021/11/06 07:05:52;;;;;;;21.83;13.02;;;2.10;83.60;;;;;;5042738;28;20041;-76
2021/11/06 07:08:20;;;;;;;24.77;12.98;;;2.20;83.00;;;;;;5025131;28;20508;-78
2021/11/06 07:10:45;;;;;;;27.60;13.32;;;2.30;83.20;;;;;;5024771;28;20021;-76
2021/11/06 07:13:11;;;;;;;23.48;12.02;;;2.40;82.80;;;;;;5014835;28;20124;-79
2021/11/06 07:15:38;;;;;;;25.63;12.50;;;2.50;82.60;;;;;;5014848;28;20121;-76
2021/11/06 07:18:03;;;;;;;18.17;10.43;;;2.50;82.10;;;;;;5014822;28;20069;-76
2021/11/06 07:20:29;;;;;;;18.08;11.45;;;2.50;82.20;;;;;;5015153;28;20088;-76
2021/11/06 07:22:55;;;;;;;17.55;10.80;;;2.50;81.90;;;;;;5014676;28;20017;-78
2021/11/06 07:25:21;;;;;;;18.58;10.75;;;2.60;81.70;;;;;;5015047;28;20049;-77
2021/11/06 07:27:46;;;;;;;17.83;11.05;;;2.70;81.90;;;;;;5015078;28;20056;-79
2021/11/06 07:30:12;;;;;;;16.25;9.82;;;2.80;81.30;;;;;;5018101;28;20021;-79
2021/11/06 07:32:38;;;;;;;12.90;8.30;;;2.90;80.80;;;;;;5020303;28;20025;-79
2021/11/06 07:35:04;;;;;;;13.75;8.68;;;3.00;80.50;;;;;;5018430;28;20517;-78
2021/11/06 07:37:32;;;;;;;14.90;8.00;;;3.10;80.40;;;;;;5032743;28;20037;-78
2021/11/06 07:39:58;;;;;;;12.70;8.27;;;3.20;80.30;;;;;;5015215;28;20021;-78
2021/11/06 07:42:25;;;;;;;12.88;8.35;;;3.30;79.70;;;;;;5015414;28;20359;-78
2021/11/06 07:44:52;;;;;;;9.88;6.80;;;3.40;79.70;;;;;;5001099;28;20367;-79
2021/11/06 07:47:17;;;;;;;12.52;8.65;;;3.50;79.40;;;;;;5019035;28;20021;-76
2021/11/06 07:49:43;;;;;;;18.23;10.30;;;3.60;78.70;;;;;;5018381;28;20504;-77
2021/11/06 07:52:09;;;;;;;22.05;10.80;;;3.60;78.10;;;;;;5018940;28;20083;-77
2021/11/06 07:54:34;;;;;;;28.58;13.77;;;3.80;78.20;;;;;;5002121;28;20132;-80
2021/11/06 07:57:00;;;;;;;18.70;10.63;;;3.60;78.20;;;;;;5036107;28;20048;-79
2021/11/06 07:59:25;;;;;;;16.70;10.23;;;3.40;77.50;;;;;;5018323;28;20144;-78
2021/11/06 08:01:52;;;;;;;18.35;11.48;;;3.40;78.30;;;;;;5018534;28;20136;-78
2021/11/06 08:04:19;;;;;;;22.17;12.43;;;3.50;78.20;;;;;;5018808;28;20036;-78
2021/11/06 08:06:45;;;;;;;17.17;11.23;;;3.50;77.60;;;;;;5020534;28;20048;-79
2021/11/06 08:09:11;;;;;;;15.60;9.55;;;3.60;77.90;;;;;;5025427;28;20029;-78
2021/11/06 08:11:36;;;;;;;16.73;10.05;;;3.80;77.90;;;;;;5036589;28;20029;-80
2021/11/06 08:14:04;;;;;;;16.17;10.50;;;4.00;77.80;;;;;;5020138;28;20112;-79
2021/11/06 08:16:29;;;;;;;17.90;10.93;;;4.30;77.20;;;;;;5003849;28;20053;-78
2021/11/06 08:18:55;;;;;;;26.40;15.02;;;4.60;76.50;;;;;;5018069;28;20096;-79
2021/11/06 08:21:21;;;;;;;24.67;14.00;;;4.80;74.70;;;;;;5018214;28;20033;-77
2021/11/06 08:23:50;;;;;;;25.77;15.55;;;4.50;76.00;;;;;;5035909;28;20450;-76
2021/11/06 08:26:16;;;;;;;27.77;16.02;;;4.90;78.30;;;;;;5017773;28;20022;-76
2021/11/06 08:28:42;;;;;;;25.17;15.63;;;5.00;78.40;;;;;;5017668;28;20025;-77
2021/11/06 08:31:09;;;;;;;23.10;14.93;;;5.30;78.90;;;;;;5017696;28;20113;-76
2021/11/06 08:33:34;;;;;;;29.90;18.20;;;5.40;75.70;;;;;;5017635;28;20482;-75
2021/11/06 08:36:01;;;;;;;26.48;17.58;;;5.40;74.40;;;;;;5035588;28;20034;-77
2021/11/06 08:38:28;;;;;;;27.80;15.05;;;5.20;74.30;;;;;;5035151;28;20021;-81
2021/11/06 08:40:55;;;;;;;23.85;14.00;;;5.60;82.10;;;;;;5001535;28;20033;-78
2021/11/06 08:43:23;;;;;;;20.35;13.98;;;6.50;88.20;;;;;;5035061;28;20100;-79
2021/11/06 08:45:50;;;;;;;17.52;13.32;;;7.10;80.30;;;;;;5035582;28;20041;-80
2021/11/06 08:48:16;;;;;;;20.20;11.02;;;7.40;74.90;;;;;;5017933;28;20367;-79
2021/11/06 08:50:52;;;;;;;14.68;10.00;;;7.80;74.50;;;;;;5018942;28;20135;-83
2021/11/06 08:53:18;;;;;;;12.32;9.35;;;8.10;71.90;;;;;;5021501;28;20055;-77
2021/11/06 08:55:44;;;;;;;13.00;8.95;;;8.30;65.70;;;;;;5018791;28;20037;-88
2021/11/06 08:58:13;;;;;;;14.18;10.80;;;8.10;65.60;;;;;;5021582;28;20040;-79
2021/11/06 09:00:42;;;;;;;16.10;10.70;;;8.20;65.50;;;;;;5001195;28;20035;-75
2021/11/06 09:03:13;;;;;;;14.68;10.07;;;8.00;65.10;;;;;;5016634;28;20096;-77
2021/11/06 09:05:40;;;;;;;13.60;8.70;;;8.00;65.30;;;;;;5035091;28;20025;-77
2021/11/06 09:08:06;;;;;;;12.35;9.35;;;7.70;66.30;;;;;;5017214;28;20029;-76
2021/11/06 09:10:31;;;;;;;11.35;8.07;;;7.50;67.60;;;;;;5000688;28;20053;-77
2021/11/06 09:12:57;;;;;;;12.40;8.23;;;7.70;67.90;;;;;;5016560;28;20057;-77
2021/11/06 09:15:24;;;;;;;9.52;7.40;;;8.00;67.70;;;;;;5017151;28;20474;-77
2021/11/06 09:17:52;;;;;;;12.32;7.70;;;8.20;66.80;;;;;;5016824;28;20087;-77
2021/11/06 09:20:18;;;;;;;10.48;7.60;;;8.50;66.50;;;;;;5017150;28;20057;-76
2021/11/06 09:22:45;;;;;;;11.70;7.80;;;8.70;65.60;;;;;;5000463;28;20022;-76
2021/11/06 09:25:12;;;;;;;12.02;8.15;;;8.80;64.70;;;;;;5017152;28;20021;-77
2021/11/06 09:27:39;;;;;;;12.80;7.75;;;9.00;64.30;;;;;;5016674;28;20053;-79
2021/11/06 09:30:07;;;;;;;11.85;7.82;;;9.20;64.20;;;;;;5016541;28;20389;-76
2021/11/06 09:32:34;;;;;;;11.75;8.20;;;9.30;63.50;;;;;;5016922;28;20026;-76
2021/11/06 09:35:00;;;;;;;10.23;7.55;;;9.50;62.70;;;;;;5000383;28;20076;-76
2021/11/06 09:37:26;;;;;;;9.55;7.65;;;9.40;62.90;;;;;;5034175;28;20453;-77
2021/11/06 09:39:53;;;;;;;10.60;8.02;;;9.30;63.90;;;;;;5016498;28;20029;-78
2021/11/06 09:42:20;;;;;;;10.85;8.30;;;9.40;63.70;;;;;;5034539;28;20021;-77
2021/11/06 09:44:50;;;;;;;13.23;8.27;;;9.30;63.30;;;;;;5034497;28;20063;-77
2021/11/06 09:47:16;;;;;;;8.63;6.85;;;9.60;63.10;;;;;;5016674;28;20489;-78
2021/11/06 09:49:42;;;;;;;11.65;7.57;;;9.80;63.00;;;;;;5017252;28;20466;-77
2021/11/06 09:52:08;;;;;;;10.95;7.80;;;10.10;62.30;;;;;;5034733;28;20032;-77
2021/11/06 09:54:35;;;;;;;9.73;6.95;;;10.30;61.40;;;;;;5020405;28;20057;-78
2021/11/06 09:57:02;;;;;;;10.05;7.85;;;10.60;60.60;;;;;;5038388;28;20537;-78
2021/11/06 09:59:30;;;;;;;11.55;7.93;;;10.40;61.00;;;;;;5015588;28;20037;-77
2021/11/06 10:01:56;;;;;;;12.35;8.52;;;10.60;60.70;;;;;;4999785;28;20113;-81
2021/11/06 10:04:22;;;;;;;11.65;7.55;;;10.40;59.80;;;;;;5033702;28;20026;-80
2021/11/06 10:06:48;;;;;;;9.73;7.88;;;10.30;60.80;;;;;;5015951;28;20361;-77
2021/11/06 10:09:15;;;;;;;10.95;8.30;;;10.60;60.40;;;;;;5015934;28;20025;-78
2021/11/06 10:11:48;;;;;;;12.13;8.45;;;10.70;59.90;;;;;;4998917;28;20033;-79
2021/11/06 10:14:26;;;;;;;14.20;9.32;;;11.10;60.50;;;;;;5015595;28;20082;-78
2021/11/06 10:16:59;;;;;;;10.35;8.57;;;11.40;58.30;;;;;;5000142;28;20084;-78
2021/11/06 10:19:35;;;;;;;10.50;8.27;;;11.30;58.30;;;;;;5022729;28;20092;-78
2021/11/06 10:22:17;;;;;;;10.18;7.93;;;11.00;58.90;;;;;;5022290;28;20066;-77
2021/11/06 10:24:51;;;;;;;13.60;8.88;;;11.40;58.60;;;;;;5023525;28;20032;-76
2021/11/06 10:27:27;;;;;;;13.70;7.93;;;11.80;57.10;;;;;;5009854;28;20026;-78
2021/11/06 10:30:14;;;;;;;13.65;9.38;;;12.00;57.10;;;;;;5041076;28;20040;-77
2021/11/06 10:32:59;;;;;;;13.20;10.02;;;12.30;55.30;;;;;;5026326;28;20420;-77
2021/11/06 10:35:30;;;;;;;17.10;9.68;;;12.40;54.40;;;;;;5035193;28;20429;-79
2021/11/06 10:38:14;;;;;;;15.63;9.88;;;12.60;54.90;;;;;;5051571;28;20060;-79
2021/11/06 10:41:07;;;;;;;13.93;9.43;;;12.40;53.80;;;;;;5035235;28;20037;-78
2021/11/06 10:43:35;;;;;;;15.10;10.10;;;12.20;54.60;;;;;;5035070;28;20432;-77
2021/11/06 10:46:04;;;;;;;14.60;10.30;;;11.90;56.00;;;;;;5053257;28;20442;-77
2021/11/06 10:48:35;;;;;;;16.00;10.90;;;11.80;56.80;;;;;;5035342;28;20036;-77
2021/11/06 10:51:04;;;;;;;13.07;9.80;;;12.00;56.90;;;;;;5051780;28;20029;-77
2021/11/06 10:53:44;;;;;;;16.10;10.93;;;12.30;56.50;;;;;;5051664;28;20033;-77
2021/11/06 10:56:29;;;;;;;14.20;11.32;;;12.40;55.70;;;;;;5035209;28;20068;-77
2021/11/06 10:59:06;;;;;;;14.68;11.98;;;12.10;55.90;;;;;;5034717;28;20037;-78
2021/11/06 11:01:35;;;;;;;13.98;11.50;;;12.10;57.10;;;;;;5052717;28;20038;-78
2021/11/06 11:04:14;;;;;;;15.52;11.38;;;12.40;56.90;;;;;;5034705;28;20037;-78
2021/11/06 11:06:54;;;;;;;13.20;10.95;;;12.90;54.30;;;;;;5051470;28;20466;-79
2021/11/06 11:09:25;;;;;;;14.88;10.55;;;13.40;53.30;;;;;;5034864;28;20029;-79
2021/11/06 11:12:03;;;;;;;10.88;9.35;;;13.70;51.70;;;;;;5051594;28;20040;-80
2021/11/06 11:14:32;;;;;;;13.70;9.73;;;14.00;51.00;;;;;;5036239;28;20214;-80
2021/11/06 11:17:00;;;;;;;11.23;9.35;;;13.90;50.60;;;;;;5051170;28;20551;-80
2021/11/06 11:19:39;;;;;;;11.32;8.48;;;13.10;52.80;;;;;;5054202;28;20061;-80
2021/11/06 11:22:06;;;;;;;11.60;9.75;;;12.80;54.70;;;;;;5038754;28;20033;-81
2021/11/06 11:24:33;;;;;;;11.55;8.98;;;13.00;55.90;;;;;;5055419;28;20552;-81
2021/11/06 11:26:58;;;;;;;10.25;8.55;;;13.30;53.80;;;;;;5031854;28;20044;-82
2021/11/06 11:29:29;;;;;;;11.07;8.40;;;13.80;53.50;;;;;;5050565;28;20029;-81
2021/11/06 11:31:56;;;;;;;13.05;9.93;;;13.90;52.80;;;;;;5056833;28;20028;-81
2021/11/06 11:34:23;;;;;;;16.27;10.13;;;14.30;51.60;;;;;;5022478;28;20037;-80
2021/11/06 11:36:55;;;;;;;13.80;9.32;;;14.10;51.30;;;;;;5038969;28;20037;-82
2021/11/06 11:39:23;;;;;;;14.50;11.13;;;14.10;51.50;;;;;;5054288;28;20033;-80
2021/11/06 11:42:14;;;;;;;12.10;9.75;;;14.10;50.70;;;;;;5039631;28;20120;-82
2021/11/06 11:44:58;;;;;;;13.40;10.50;;;13.80;52.60;;;;;;5062384;28;20021;-82
2021/11/06 11:47:32;;;;;;;13.02;10.50;;;14.50;50.90;;;;;;5054239;28;20032;-80
2021/11/06 11:50:02;;;;;;;16.67;11.27;;;14.50;50.10;;;;;;5045955;28;20021;-81
2021/11/06 11:52:36;;;;;;;12.45;10.18;;;14.70;49.20;;;;;;5044422;28;20025;-80
2021/11/06 11:55:14;;;;;;;13.00;9.82;;;15.10;48.10;;;;;;5039901;28;20033;-79
2021/11/06 11:57:51;;;;;;;11.85;9.63;;;15.50;46.70;;;;;;5040832;28;20461;-78
2021/11/06 12:00:23;;;;;;;14.43;10.40;;;15.00;46.40;;;;;;5038646;28;20047;-78
2021/11/06 12:03:30;;;;;;;12.90;10.25;;;15.00;47.80;;;;;;5055943;28;20081;-79
2021/11/06 12:05:56;;;;;;;12.52;10.05;;;15.80;45.70;;;;;;5040683;28;20032;-79
2021/11/06 12:08:22;;;;;;;12.77;10.48;;;16.50;44.40;;;;;;5055832;28;20025;-78
2021/11/06 12:10:56;;;;;;;12.77;10.90;;;16.80;42.00;;;;;;5038139;28;20104;-78
2021/11/06 12:13:28;;;;;;;15.27;12.65;;;16.70;41.80;;;;;;5039309;28;20096;-79
2021/11/06 12:16:02;;;;;;;15.40;12.32;;;17.00;41.30;;;;;;5032479;28;20036;-78
2021/11/06 12:18:55;;;;;;;13.73;11.27;;;17.30;40.40;;;;;;5017726;28;20128;-79
2021/11/06 12:21:33;;;;;;;16.85;14.00;;;17.40;39.60;;;;;;5000431;28;20034;-79
2021/11/06 12:24:20;;;;;;;13.43;11.48;;;17.80;38.40;;;;;;5016240;28;20462;-78
2021/11/06 12:26:53;;;;;;;15.80;12.80;;;17.80;37.70;;;;;;4998626;28;20076;-77
2021/11/06 12:29:19;;;;;;;13.50;11.15;;;18.20;37.30;;;;;;4998288;28;20475;-78
2021/11/06 12:31:50;;;;;;;13.00;11.60;;;18.60;36.70;;;;;;4998166;28;20033;-78
2021/11/06 12:34:46;;;;;;;14.80;11.98;;;19.20;36.00;;;;;;4997957;28;20167;-78
2021/11/06 12:37:40;;;;;;;14.45;11.73;;;19.50;34.30;;;;;;4998083;28;20040;-79
2021/11/06 12:40:23;;;;;;;16.88;14.48;;;19.90;33.70;;;;;;5014114;28;20438;-79
2021/11/06 12:43:09;;;;;;;17.98;15.45;;;19.30;35.70;;;;;;4994666;28;20029;-80
2021/11/06 12:45:34;;;;;;;;;;;20.20;34.20;;;;;;4997982;28;20033;-79
2021/11/06 12:48:15;;;;;;;;;;;20.50;34.90;;;;;;5013843;28;19905;-79